TimeEST,TemperatureF,Dew PointF,Humidity,Sea Level PressureIn,VisibilityMPH,Wind Direction,Wind SpeedMPH,Gust SpeedMPH,PrecipitationIn,Events,Conditions,WindDirDegrees,DateUTC
12:15 AM,27.0,25.3,94,30.04,10.0,Calm,Calm,-,N/A,,Clear,0,2013-12-02 05:15:00
12:35 AM,26.8,25.3,94,30.04,10.0,Calm,Calm,-,N/A,,Clear,0,2013-12-02 05:35:00
12:55 AM,26.8,25.3,94,30.03,10.0,Calm,Calm,-,N/A,,Clear,0,2013-12-02 05:55:00
1:15 AM,26.2,24.6,94,30.02,10.0,Calm,Calm,-,N/A,,Clear,0,2013-12-02 06:15:00
1:35 AM,26.2,25.0,95,30.02,10.0,Calm,Calm,-,N/A,,Clear,0,2013-12-02 06:35:00
1:55 AM,25.7,24.4,95,30.01,10.0,Calm,Calm,-,N/A,,Clear,0,2013-12-02 06:55:00
2:15 AM,26.1,25.2,96,30.00,10.0,Calm,Calm,-,N/A,,Clear,0,2013-12-02 07:15:00
2:35 AM,26.2,24.6,94,30.00,10.0,Calm,Calm,-,N/A,,Clear,0,2013-12-02 07:35:00
2:55 AM,26.1,24.8,95,30.00,10.0,Calm,Calm,-,N/A,,Clear,0,2013-12-02 07:55:00
3:15 AM,25.3,24.3,96,29.99,10.0,Calm,Calm,-,N/A,,Clear,0,2013-12-02 08:15:00
3:35 AM,25.2,23.9,95,29.99,10.0,Calm,Calm,-,N/A,,Clear,0,2013-12-02 08:35:00
3:55 AM,25.2,23.9,95,29.98,10.0,Calm,Calm,-,N/A,,Clear,0,2013-12-02 08:55:00
4:15 AM,25.2,23.9,95,29.97,10.0,NW,3.5,-,N/A,,Clear,320,2013-12-02 09:15:00
4:35 AM,24.6,23.2,94,29.97,10.0,Calm,Calm,-,N/A,,Clear,0,2013-12-02 09:35:00
4:55 AM,24.6,23.5,96,29.96,10.0,Calm,Calm,-,N/A,,Clear,0,2013-12-02 09:55:00
5:15 AM,24.3,23.4,96,29.97,10.0,Calm,Calm,-,N/A,,Clear,0,2013-12-02 10:15:00
5:35 AM,24.4,23.2,95,29.97,10.0,Calm,Calm,-,N/A,,Clear,0,2013-12-02 10:35:00
5:55 AM,24.4,23.0,94,29.97,10.0,Calm,Calm,-,N/A,,Clear,0,2013-12-02 10:55:00
6:15 AM,24.3,22.8,94,29.96,10.0,Calm,Calm,-,N/A,,Clear,0,2013-12-02 11:15:00
6:35 AM,24.3,22.8,94,29.96,10.0,Calm,Calm,-,N/A,,Clear,0,2013-12-02 11:35:00
6:55 AM,23.9,22.6,95,29.96,10.0,Calm,Calm,-,N/A,,Clear,0,2013-12-02 11:55:00
7:15 AM,23.7,22.8,96,29.96,10.0,Calm,Calm,-,N/A,,Clear,0,2013-12-02 12:15:00
7:35 AM,23.7,22.8,96,29.96,10.0,Calm,Calm,-,N/A,,Clear,0,2013-12-02 12:35:00
7:55 AM,25.2,23.9,95,29.96,10.0,Calm,Calm,-,N/A,,Clear,0,2013-12-02 12:55:00
8:15 AM,27.7,26.6,96,29.95,10.0,Calm,Calm,-,N/A,,Clear,0,2013-12-02 13:15:00
8:35 AM,30.0,27.9,92,29.96,10.0,Calm,Calm,-,N/A,,Mostly Cloudy,0,2013-12-02 13:35:00
8:55 AM,34.9,30.9,85,29.96,10.0,Calm,Calm,-,N/A,,Overcast,0,2013-12-02 13:55:00
9:15 AM,38.1,32.0,79,29.96,10.0,Calm,Calm,-,N/A,,Overcast,0,2013-12-02 14:15:00
9:35 AM,40.1,32.2,73,29.96,10.0,Calm,Calm,-,N/A,,Overcast,0,2013-12-02 14:35:00
9:55 AM,41.2,33.8,75,29.95,10.0,Calm,Calm,-,N/A,,Overcast,0,2013-12-02 14:55:00
10:15 AM,42.6,34.7,74,29.94,10.0,Calm,Calm,-,N/A,,Overcast,0,2013-12-02 15:15:00
10:35 AM,48.2,36.3,63,29.93,10.0,Calm,Calm,-,N/A,,Overcast,0,2013-12-02 15:35:00
10:55 AM,50.0,36.9,61,29.93,10.0,NNE,3.5,-,N/A,,Overcast,20,2013-12-02 15:55:00
11:15 AM,52.0,37.0,57,29.92,10.0,Calm,Calm,-,N/A,,Overcast,0,2013-12-02 16:15:00
11:35 AM,52.7,36.1,53,29.91,10.0,Calm,Calm,-,N/A,,Overcast,0,2013-12-02 16:35:00
11:55 AM,54.3,33.6,46,29.91,10.0,Calm,Calm,-,N/A,,Overcast,0,2013-12-02 16:55:00
12:15 PM,54.7,32.2,42,29.91,10.0,Calm,Calm,-,N/A,,Overcast,0,2013-12-02 17:15:00
12:35 PM,55.4,34.9,46,29.90,10.0,Calm,Calm,-,N/A,,Overcast,0,2013-12-02 17:35:00
12:55 PM,55.4,34.9,46,29.90,10.0,Calm,Calm,-,N/A,,Overcast,0,2013-12-02 17:55:00
1:15 PM,55.4,35.1,46,29.88,10.0,Calm,Calm,-,N/A,,Overcast,0,2013-12-02 18:15:00
1:35 PM,55.4,35.2,47,29.88,10.0,Calm,Calm,-,N/A,,Overcast,0,2013-12-02 18:35:00
1:55 PM,55.4,35.4,47,29.87,10.0,Calm,Calm,-,N/A,,Overcast,0,2013-12-02 18:55:00
2:15 PM,55.4,35.2,47,29.87,10.0,Calm,Calm,-,N/A,,Overcast,0,2013-12-02 19:15:00
2:35 PM,55.4,34.9,46,29.86,10.0,Calm,Calm,-,N/A,,Overcast,0,2013-12-02 19:35:00
2:55 PM,55.4,35.1,46,29.85,10.0,Calm,Calm,-,N/A,,Overcast,0,2013-12-02 19:55:00
3:15 PM,55.4,34.9,46,29.85,10.0,Calm,Calm,-,N/A,,Overcast,0,2013-12-02 20:15:00
3:35 PM,54.9,36.0,49,29.86,10.0,Calm,Calm,-,N/A,,Overcast,0,2013-12-02 20:35:00
3:55 PM,54.0,39.7,59,29.86,10.0,Calm,Calm,-,N/A,,Overcast,0,2013-12-02 20:55:00
4:15 PM,53.6,40.1,60,29.86,10.0,Calm,Calm,-,N/A,,Overcast,0,2013-12-02 21:15:00
4:35 PM,52.7,39.0,60,29.86,10.0,Calm,Calm,-,N/A,,Overcast,0,2013-12-02 21:35:00
4:55 PM,50.4,40.8,70,29.87,10.0,Calm,Calm,-,N/A,,Overcast,0,2013-12-02 21:55:00
5:15 PM,50.0,39.6,67,29.87,10.0,Calm,Calm,-,N/A,,Overcast,0,2013-12-02 22:15:00
5:35 PM,48.2,40.3,74,29.87,10.0,Calm,Calm,-,N/A,,Overcast,0,2013-12-02 22:35:00
5:55 PM,48.0,39.4,72,29.87,10.0,Calm,Calm,-,N/A,,Overcast,0,2013-12-02 22:55:00
6:15 PM,46.9,39.4,75,29.88,10.0,Calm,Calm,-,N/A,,Overcast,0,2013-12-02 23:15:00
6:35 PM,46.6,39.9,78,29.88,10.0,Calm,Calm,-,N/A,,Overcast,0,2013-12-02 23:35:00
6:55 PM,46.0,39.2,77,29.88,10.0,Calm,Calm,-,N/A,,Overcast,0,2013-12-02 23:55:00
7:15 PM,45.0,39.7,82,29.88,10.0,Calm,Calm,-,N/A,,Overcast,0,2013-12-03 00:15:00
7:35 PM,44.8,39.6,82,29.88,10.0,Calm,Calm,-,N/A,,Overcast,0,2013-12-03 00:35:00
7:55 PM,44.4,39.2,82,29.88,10.0,Calm,Calm,-,N/A,,Overcast,0,2013-12-03 00:55:00
8:15 PM,44.2,39.2,82,29.89,10.0,Calm,Calm,-,N/A,,Overcast,0,2013-12-03 01:15:00
8:35 PM,44.1,39.2,83,29.88,10.0,Calm,Calm,-,N/A,,Overcast,0,2013-12-03 01:35:00
8:55 PM,43.0,39.2,86,29.89,10.0,Calm,Calm,-,N/A,,Overcast,0,2013-12-03 01:55:00
9:15 PM,42.4,38.8,87,29.90,10.0,Calm,Calm,-,N/A,,Overcast,0,2013-12-03 02:15:00
9:35 PM,43.2,39.2,86,29.90,10.0,Calm,Calm,-,N/A,,Overcast,0,2013-12-03 02:35:00
9:55 PM,43.2,39.2,86,29.90,10.0,Calm,Calm,-,N/A,,Overcast,0,2013-12-03 02:55:00
10:15 PM,41.9,39.0,90,29.90,10.0,Calm,Calm,-,N/A,,Overcast,0,2013-12-03 03:15:00
10:35 PM,42.1,38.8,88,29.89,10.0,Calm,Calm,-,N/A,,Overcast,0,2013-12-03 03:35:00
10:55 PM,41.2,38.7,91,29.90,10.0,Calm,Calm,-,N/A,,Overcast,0,2013-12-03 03:55:00
11:15 PM,40.5,38.1,91,29.90,10.0,Calm,Calm,-,N/A,,Mostly Cloudy,0,2013-12-03 04:15:00
11:35 PM,39.6,37.4,92,29.90,10.0,Calm,Calm,-,N/A,,Scattered Clouds,0,2013-12-03 04:35:00
11:55 PM,37.4,36.0,95,29.90,10.0,Calm,Calm,-,N/A,,Scattered Clouds,0,2013-12-03 04:55:00